Time;durP1;ratioP1;P1;durP2;ratioP2;P2;SDS_P1;SDS_P2;PMS_P1;PMS_P2;Temp;Humidity;BMP_temperature;BMP_pressure;BME280_temperature;BME280_humidity;BME280_pressure;Samples;Min_cycle;Max_cycle;Signal;HPM_P1;HPM_P2
2021/12/28 00:00:14;;;;;;;91.23;36.97;;;-3.20;99.90;;;;;;5118389;29;20423;-48
2021/12/28 00:02:46;;;;;;;80.23;35.80;;;-3.20;99.90;;;;;;5094532;29;20186;-47
2021/12/28 00:05:18;;;;;;;91.87;38.60;;;-3.30;99.90;;;;;;5107715;29;20966;-47
2021/12/28 00:07:49;;;;;;;86.20;37.63;;;-3.30;99.90;;;;;;5107722;29;20528;-48
2021/12/28 00:10:21;;;;;;;83.87;36.30;;;-3.30;99.90;;;;;;5109518;29;20939;-47
2021/12/28 00:12:54;;;;;;;81.50;37.43;;;-3.30;99.90;;;;;;5089877;29;21094;-48
2021/12/28 00:18:04;;;;;;;95.50;37.00;;;-3.30;99.90;;;;;;5105223;29;20497;-50
2021/12/28 00:20:40;;;;;;;84.40;35.40;;;-3.40;99.90;;;;;;5090570;29;20193;-48
2021/12/28 00:23:17;;;;;;;94.93;38.23;;;-3.40;99.90;;;;;;5106701;29;20438;-48
2021/12/28 00:25:50;;;;;;;95.50;35.90;;;-3.40;99.90;;;;;;5107391;29;20625;-48
2021/12/28 00:28:22;;;;;;;95.80;39.50;;;-3.40;99.90;;;;;;5090953;29;20437;-49
2021/12/28 00:30:53;;;;;;;86.30;36.03;;;-3.40;99.90;;;;;;5106511;29;20433;-47
2021/12/28 00:33:25;;;;;;;96.47;38.17;;;-3.40;99.90;;;;;;5105562;29;20435;-46
2021/12/28 00:35:56;;;;;;;89.90;39.97;;;-3.50;99.90;;;;;;5090553;29;20458;-48
2021/12/28 00:38:27;;;;;;;88.00;36.17;;;-3.40;99.90;;;;;;5106652;29;20780;-48
2021/12/28 00:41:03;;;;;;;92.50;37.10;;;-3.50;99.90;;;;;;5108149;29;20183;-47
2021/12/28 00:43:34;;;;;;;90.40;36.90;;;-3.50;99.90;;;;;;5106051;29;20434;-48
2021/12/28 00:46:06;;;;;;;101.97;38.10;;;-3.60;99.90;;;;;;5063723;29;20463;-47
2021/12/28 00:48:37;;;;;;;90.93;39.60;;;-3.50;99.90;;;;;;5096587;29;20513;-46
2021/12/28 00:51:07;;;;;;;89.57;36.27;;;-3.50;99.90;;;;;;5090070;29;20522;-46
2021/12/28 00:53:38;;;;;;;92.40;37.13;;;-3.50;99.90;;;;;;5106966;29;20226;-47
2021/12/28 00:56:08;;;;;;;92.20;37.83;;;-3.50;99.90;;;;;;5090570;29;20281;-46
2021/12/28 00:58:39;;;;;;;90.57;37.50;;;-3.60;99.90;;;;;;5105984;29;20198;-47
2021/12/28 01:01:09;;;;;;;87.90;38.73;;;-3.60;99.90;;;;;;5106905;29;20209;-46
2021/12/28 01:03:40;;;;;;;91.67;38.23;;;-3.60;99.90;;;;;;5105899;29;20557;-47
2021/12/28 01:06:11;;;;;;;103.47;41.40;;;-3.60;99.90;;;;;;5105211;29;20226;-47
2021/12/28 01:08:41;;;;;;;90.80;38.07;;;-3.60;99.90;;;;;;5106621;29;20261;-47
2021/12/28 01:11:12;;;;;;;91.67;36.20;;;-3.60;99.90;;;;;;5083854;29;20290;-48
2021/12/28 01:13:42;;;;;;;96.73;38.80;;;-3.60;99.90;;;;;;5089462;29;20191;-47
2021/12/28 01:16:14;;;;;;;90.87;36.93;;;-3.70;99.90;;;;;;5104716;29;20290;-49
2021/12/28 01:18:44;;;;;;;94.30;38.47;;;-3.70;99.90;;;;;;5104729;29;20201;-48
2021/12/28 01:21:15;;;;;;;91.10;37.70;;;-3.70;99.90;;;;;;5085194;29;20431;-48
2021/12/28 01:23:45;;;;;;;80.27;36.17;;;-3.70;99.90;;;;;;5106561;29;20182;-47
2021/12/28 01:26:16;;;;;;;91.40;37.43;;;-3.70;99.90;;;;;;5106323;29;20226;-48
2021/12/28 01:28:46;;;;;;;97.53;39.70;;;-3.70;99.90;;;;;;5100126;29;20675;-49
2021/12/28 01:31:17;;;;;;;94.10;37.03;;;-3.70;99.90;;;;;;5084329;29;20196;-47
2021/12/28 01:33:48;;;;;;;105.67;41.10;;;-3.70;99.90;;;;;;5104669;29;20703;-47
2021/12/28 01:36:18;;;;;;;98.50;38.20;;;-3.70;99.90;;;;;;5089942;29;20745;-47
2021/12/28 01:38:49;;;;;;;91.93;37.50;;;-3.70;99.90;;;;;;5106182;29;20666;-46
2021/12/28 01:41:19;;;;;;;91.47;36.37;;;-3.70;99.90;;;;;;5085429;29;20603;-47
2021/12/28 01:43:58;;;;;;;94.30;39.17;;;-3.70;99.90;;;;;;5106701;29;20187;-47
2021/12/28 01:46:29;;;;;;;86.97;38.23;;;-3.70;99.90;;;;;;5121141;23;20238;-50
2021/12/28 01:48:59;;;;;;;91.90;39.63;;;-3.70;99.90;;;;;;5123168;29;20940;-50
2021/12/28 01:51:32;;;;;;;96.50;39.27;;;-3.70;99.90;;;;;;5101743;29;20179;-50
2021/12/28 01:54:04;;;;;;;89.70;37.37;;;-3.70;99.90;;;;;;5117224;28;20183;-51
2021/12/28 01:56:44;;;;;;;101.43;41.33;;;-3.70;99.90;;;;;;5107479;29;20460;-51
2021/12/28 01:59:17;;;;;;;88.77;38.70;;;-3.70;99.90;;;;;;5124445;28;20476;-51
2021/12/28 02:01:48;;;;;;;100.40;39.80;;;-3.80;99.90;;;;;;5107623;29;21033;-50
2021/12/28 02:04:23;;;;;;;112.07;38.53;;;-3.80;99.90;;;;;;5122114;28;20786;-51
2021/12/28 02:07:02;;;;;;;98.13;40.13;;;-3.80;99.90;;;;;;5124027;28;20464;-51
2021/12/28 02:09:32;;;;;;;93.27;38.73;;;-3.80;99.90;;;;;;5107826;28;20457;-50
2021/12/28 02:12:03;;;;;;;116.13;39.47;;;-3.80;99.90;;;;;;5117739;28;20434;-51
2021/12/28 02:14:35;;;;;;;89.00;37.93;;;-3.80;99.90;;;;;;5123895;28;20197;-50
2021/12/28 02:17:06;;;;;;;100.93;40.90;;;-3.80;99.90;;;;;;5126930;28;20281;-51
2021/12/28 02:19:37;;;;;;;117.57;40.70;;;-3.80;99.90;;;;;;5127877;28;20492;-51
2021/12/28 02:22:08;;;;;;;95.93;40.43;;;-3.80;99.90;;;;;;5110235;29;20203;-52
2021/12/28 02:24:38;;;;;;;98.30;40.87;;;-3.80;99.90;;;;;;5125125;29;20547;-50
2021/12/28 02:27:10;;;;;;;109.33;41.03;;;-3.90;99.90;;;;;;5126758;28;20471;-52
2021/12/28 02:29:40;;;;;;;99.33;39.73;;;-3.90;99.90;;;;;;5117870;29;20190;-51
2021/12/28 02:32:11;;;;;;;96.10;38.20;;;-3.90;99.90;;;;;;5125982;28;20438;-51
2021/12/28 02:34:42;;;;;;;97.33;39.93;;;-3.90;99.90;;;;;;5127121;29;20281;-52
2021/12/28 02:37:12;;;;;;;97.27;41.67;;;-3.90;99.90;;;;;;5127912;29;20203;-50
2021/12/28 02:39:45;;;;;;;108.50;40.57;;;-3.90;99.90;;;;;;5125850;28;20178;-50
2021/12/28 02:42:18;;;;;;;97.47;40.23;;;-4.00;99.90;;;;;;5109660;29;20518;-53
2021/12/28 02:45:18;;;;;;;93.90;38.77;;;-4.00;99.90;;;;;;5126860;28;20494;-51
2021/12/28 02:47:49;;;;;;;108.33;40.37;;;-4.00;99.90;;;;;;5124805;29;20498;-51
2021/12/28 02:50:26;;;;;;;113.60;43.23;;;-4.00;99.90;;;;;;5124267;29;20536;-50
2021/12/28 02:52:57;;;;;;;106.57;41.23;;;-4.10;99.90;;;;;;5124719;29;20485;-50
2021/12/28 02:55:31;;;;;;;104.67;41.30;;;-4.10;99.90;;;;;;5126537;28;20438;-52
2021/12/28 02:58:08;;;;;;;103.67;41.80;;;-4.10;99.90;;;;;;5111546;29;20453;-52
2021/12/28 03:00:48;;;;;;;112.97;43.70;;;-4.10;99.90;;;;;;5129219;28;20441;-51
2021/12/28 03:03:22;;;;;;;109.93;42.10;;;-4.10;99.90;;;;;;5122586;28;20532;-52
2021/12/28 03:05:55;;;;;;;127.10;43.40;;;-4.10;99.90;;;;;;5127570;29;20485;-50
2021/12/28 03:08:28;;;;;;;115.50;41.37;;;-4.10;99.90;;;;;;5129076;28;20433;-50
2021/12/28 03:11:03;;;;;;;105.90;41.77;;;-4.10;99.90;;;;;;5108213;28;20426;-50
2021/12/28 03:13:40;;;;;;;125.10;40.87;;;-4.10;99.90;;;;;;5127313;29;20424;-52
2021/12/28 03:16:12;;;;;;;102.40;41.87;;;-4.10;99.90;;;;;;5109823;29;20492;-50
2021/12/28 03:18:43;;;;;;;104.57;42.53;;;-4.20;99.90;;;;;;5127940;29;20454;-52
2021/12/28 03:21:16;;;;;;;118.30;41.00;;;-4.20;99.90;;;;;;5126626;28;20438;-50
2021/12/28 03:23:46;;;;;;;94.70;39.07;;;-4.10;99.90;;;;;;5127662;29;20434;-50
2021/12/28 03:26:18;;;;;;;96.90;41.80;;;-4.10;99.90;;;;;;5127078;28;20505;-52
2021/12/28 03:28:49;;;;;;;113.20;41.67;;;-4.10;99.90;;;;;;5115646;29;20183;-51
2021/12/28 03:31:22;;;;;;;98.17;41.50;;;-4.10;99.90;;;;;;5126036;29;20459;-51
2021/12/28 03:33:54;;;;;;;103.60;41.70;;;-4.00;99.90;;;;;;5105383;29;20198;-51
2021/12/28 03:36:30;;;;;;;113.67;42.00;;;-4.00;99.90;;;;;;5127760;29;20453;-52
2021/12/28 03:39:03;;;;;;;100.43;42.10;;;-4.00;99.90;;;;;;5103952;29;20457;-50
2021/12/28 03:41:34;;;;;;;120.43;44.77;;;-4.00;99.90;;;;;;5123396;29;20946;-51
2021/12/28 03:44:05;;;;;;;107.83;40.60;;;-3.90;99.90;;;;;;5128026;29;20426;-52
2021/12/28 03:46:36;;;;;;;103.20;40.20;;;-3.90;99.90;;;;;;5126439;28;20479;-51
2021/12/28 03:49:06;;;;;;;112.63;43.10;;;-4.00;99.90;;;;;;5108938;29;20193;-51
2021/12/28 03:51:37;;;;;;;100.80;43.53;;;-4.00;99.90;;;;;;5124705;29;20689;-51
2021/12/28 03:54:07;;;;;;;122.40;42.90;;;-4.00;99.90;;;;;;5119898;29;20198;-49
2021/12/28 03:56:38;;;;;;;106.00;43.00;;;-4.00;99.90;;;;;;5106440;29;20206;-50
2021/12/28 03:59:08;;;;;;;116.33;42.47;;;-4.00;99.90;;;;;;5124917;28;20217;-49
2021/12/28 04:01:39;;;;;;;116.60;44.50;;;-4.00;99.90;;;;;;5121681;28;20269;-51
2021/12/28 04:04:09;;;;;;;100.67;42.03;;;-4.00;99.90;;;;;;5116634;29;20227;-51
2021/12/28 04:06:40;;;;;;;125.60;42.77;;;-4.00;99.90;;;;;;5125143;29;20229;-50
2021/12/28 04:09:12;;;;;;;112.27;41.13;;;-4.00;99.90;;;;;;5123934;28;20268;-52
2021/12/28 04:11:43;;;;;;;101.30;42.40;;;-4.00;99.90;;;;;;5118595;29;20181;-51
2021/12/28 04:14:14;;;;;;;98.77;41.00;;;-4.00;99.90;;;;;;5104087;29;20525;-52
2021/12/28 04:16:44;;;;;;;98.13;41.97;;;-4.00;99.90;;;;;;5123270;28;20210;-52
2021/12/28 04:19:15;;;;;;;121.73;45.23;;;-4.00;99.90;;;;;;5123402;29;20237;-50
2021/12/28 04:21:45;;;;;;;111.13;43.27;;;-4.00;99.90;;;;;;5105089;29;20193;-50
2021/12/28 04:24:16;;;;;;;124.17;45.83;;;-4.00;99.90;;;;;;5125136;28;20188;-51
2021/12/28 04:26:46;;;;;;;123.13;43.00;;;-4.00;99.90;;;;;;5107891;29;20217;-52
2021/12/28 04:29:17;;;;;;;102.97;42.17;;;-4.00;99.90;;;;;;5123527;29;20185;-51
2021/12/28 04:31:48;;;;;;;111.47;44.00;;;-4.00;99.90;;;;;;5125888;28;20261;-52
2021/12/28 04:34:18;;;;;;;98.63;44.00;;;-4.00;99.90;;;;;;5125486;28;20195;-51
2021/12/28 04:36:50;;;;;;;120.03;43.07;;;-3.90;99.90;;;;;;5126571;29;20206;-50
2021/12/28 04:39:21;;;;;;;102.50;43.87;;;-3.90;99.90;;;;;;5125816;28;20206;-51
2021/12/28 04:41:52;;;;;;;99.43;41.93;;;-3.90;99.90;;;;;;5126936;29;20440;-50
2021/12/28 04:44:25;;;;;;;98.07;41.20;;;-3.90;99.90;;;;;;5128318;29;20218;-50
2021/12/28 04:46:55;;;;;;;103.97;42.10;;;-3.80;99.90;;;;;;5119137;29;20209;-52
2021/12/28 04:49:28;;;;;;;106.60;42.03;;;-3.80;99.90;;;;;;5124806;29;20456;-51
2021/12/28 04:51:59;;;;;;;115.20;43.50;;;-3.80;99.90;;;;;;5122813;28;20197;-51
2021/12/28 04:54:30;;;;;;;116.00;43.67;;;-3.80;99.90;;;;;;5123403;28;20469;-51
2021/12/28 04:57:00;;;;;;;114.90;43.63;;;-3.80;99.90;;;;;;5121128;28;20462;-50
2021/12/28 04:59:31;;;;;;;121.27;44.53;;;-3.80;99.90;;;;;;5123494;28;20205;-51
2021/12/28 05:02:02;;;;;;;111.97;43.50;;;-3.80;99.90;;;;;;5126042;29;20615;-50
2021/12/28 05:04:33;;;;;;;111.83;43.97;;;-3.70;99.90;;;;;;5088772;29;20841;-51
2021/12/28 05:07:03;;;;;;;128.77;43.67;;;-3.80;99.90;;;;;;5121580;28;20505;-50
2021/12/28 05:09:34;;;;;;;107.80;41.00;;;-3.80;99.90;;;;;;5101826;29;20214;-51
2021/12/28 05:12:05;;;;;;;106.27;43.70;;;-3.90;99.90;;;;;;5103943;28;20189;-51
2021/12/28 05:14:39;;;;;;;113.10;44.83;;;-3.80;99.90;;;;;;5124980;28;20182;-52
2021/12/28 05:17:10;;;;;;;120.27;40.90;;;-3.80;99.90;;;;;;5126315;28;20456;-51
2021/12/28 05:19:41;;;;;;;108.20;43.67;;;-3.80;99.90;;;;;;5126092;28;20441;-51
2021/12/28 05:22:12;;;;;;;113.00;43.53;;;-3.70;99.90;;;;;;5125392;28;20186;-51
2021/12/28 05:24:42;;;;;;;98.77;42.07;;;-3.70;99.90;;;;;;5125315;28;20241;-51
2021/12/28 05:27:13;;;;;;;117.13;45.60;;;-3.70;99.90;;;;;;5124770;28;20466;-52
2021/12/28 05:29:44;;;;;;;117.83;44.60;;;-3.60;99.90;;;;;;5123648;28;20195;-51
2021/12/28 05:32:15;;;;;;;106.70;43.30;;;-3.60;99.90;;;;;;5106593;29;20278;-52
2021/12/28 05:34:46;;;;;;;96.80;42.00;;;-3.60;99.90;;;;;;5109089;28;20256;-51
2021/12/28 05:37:16;;;;;;;102.30;42.07;;;-3.50;99.90;;;;;;5119415;28;20461;-50
2021/12/28 05:39:47;;;;;;;110.60;43.80;;;-3.50;99.90;;;;;;5123220;28;20186;-51
2021/12/28 05:42:18;;;;;;;111.80;42.70;;;-3.50;99.90;;;;;;5124231;28;20261;-50
2021/12/28 05:44:48;;;;;;;110.33;43.10;;;-3.50;99.90;;;;;;5117970;28;20186;-51
2021/12/28 05:47:20;;;;;;;112.37;43.77;;;-3.40;99.90;;;;;;5125995;28;20318;-51
2021/12/28 05:49:50;;;;;;;119.13;45.17;;;-3.40;99.90;;;;;;5125802;28;20323;-52
2021/12/28 05:52:23;;;;;;;110.00;41.60;;;-3.40;99.90;;;;;;5129206;28;20520;-50
2021/12/28 05:54:53;;;;;;;115.23;43.87;;;-3.30;99.90;;;;;;5127744;28;20193;-50
2021/12/28 05:57:24;;;;;;;114.80;43.93;;;-3.40;99.90;;;;;;5127241;28;20458;-50
2021/12/28 05:59:55;;;;;;;122.70;44.03;;;-3.30;99.90;;;;;;5110994;28;20179;-51
2021/12/28 06:02:25;;;;;;;111.63;42.60;;;-3.30;99.90;;;;;;5129607;29;20183;-51
2021/12/28 06:04:56;;;;;;;113.07;42.63;;;-3.30;99.90;;;;;;5126741;29;20186;-51
2021/12/28 06:07:27;;;;;;;104.20;41.27;;;-3.30;99.90;;;;;;5128786;29;20206;-50
2021/12/28 06:09:58;;;;;;;103.97;43.13;;;-3.30;99.90;;;;;;5125263;29;20261;-51
2021/12/28 06:12:28;;;;;;;110.47;42.27;;;-3.30;99.90;;;;;;5120972;29;20517;-51
2021/12/28 06:14:59;;;;;;;122.43;43.87;;;-3.30;99.90;;;;;;5126209;28;20277;-50
2021/12/28 06:17:29;;;;;;;109.30;44.87;;;-3.20;99.90;;;;;;5117224;28;20214;-51
2021/12/28 06:20:00;;;;;;;105.30;43.00;;;-3.20;99.90;;;;;;5119915;28;20202;-51
2021/12/28 06:22:30;;;;;;;110.37;45.80;;;-3.20;99.90;;;;;;5115033;28;20205;-51
2021/12/28 06:25:02;;;;;;;112.60;43.07;;;-3.20;99.90;;;;;;5118993;28;20238;-52
2021/12/28 06:27:33;;;;;;;107.57;42.77;;;-3.20;99.90;;;;;;5087716;29;20261;-51
2021/12/28 06:30:04;;;;;;;98.97;41.73;;;-3.20;99.90;;;;;;5120262;28;20533;-50
2021/12/28 06:32:34;;;;;;;113.40;42.73;;;-3.20;99.90;;;;;;5123009;28;20194;-50
2021/12/28 06:35:06;;;;;;;104.47;41.43;;;-3.20;99.90;;;;;;5110079;28;20438;-52
2021/12/28 06:37:37;;;;;;;124.83;43.47;;;-3.20;99.90;;;;;;5120429;29;20270;-52
2021/12/28 06:40:09;;;;;;;106.60;42.63;;;-3.20;99.90;;;;;;5107536;28;20495;-51
2021/12/28 06:42:40;;;;;;;94.33;41.73;;;-3.10;99.90;;;;;;5116071;28;20513;-52
2021/12/28 06:45:10;;;;;;;106.13;43.20;;;-3.20;99.90;;;;;;5116960;29;20462;-50
2021/12/28 06:47:41;;;;;;;103.43;43.40;;;-3.10;99.90;;;;;;5119731;28;20505;-51
2021/12/28 06:50:12;;;;;;;113.03;43.73;;;-3.10;99.90;;;;;;5122028;29;20183;-52
2021/12/28 06:52:42;;;;;;;105.83;40.10;;;-3.10;99.90;;;;;;5112132;28;20200;-51
2021/12/28 06:55:13;;;;;;;107.83;43.73;;;-3.10;99.90;;;;;;5116247;29;20191;-51
2021/12/28 06:57:44;;;;;;;111.43;42.00;;;-3.10;99.90;;;;;;5121785;29;20240;-52
2021/12/28 07:00:17;;;;;;;107.10;42.47;;;-3.00;99.90;;;;;;5124009;28;20203;-52
2021/12/28 07:02:47;;;;;;;105.43;42.67;;;-3.10;99.90;;;;;;5103458;29;20230;-52
2021/12/28 07:05:18;;;;;;;120.10;45.03;;;-3.10;99.90;;;;;;5127461;28;20534;-52
2021/12/28 07:07:48;;;;;;;115.40;44.07;;;-3.00;99.90;;;;;;5103556;28;20207;-51
2021/12/28 07:10:20;;;;;;;110.13;42.60;;;-3.00;99.90;;;;;;5105566;29;20301;-51
2021/12/28 07:12:51;;;;;;;109.90;44.70;;;-3.00;99.90;;;;;;5122516;28;20178;-51
2021/12/28 07:15:22;;;;;;;105.50;42.90;;;-3.00;99.90;;;;;;5118684;28;20441;-52
2021/12/28 07:17:52;;;;;;;105.07;43.63;;;-3.00;99.90;;;;;;5103059;29;20265;-51
2021/12/28 07:20:23;;;;;;;116.43;44.50;;;-3.00;99.90;;;;;;5123495;29;20685;-50
2021/12/28 07:22:53;;;;;;;122.10;42.37;;;-3.00;99.90;;;;;;5109232;29;20195;-51
2021/12/28 07:25:24;;;;;;;107.80;44.03;;;-3.00;99.90;;;;;;5102019;29;20202;-52
2021/12/28 07:27:55;;;;;;;127.37;44.93;;;-3.00;99.90;;;;;;5117415;28;20206;-51
2021/12/28 07:30:26;;;;;;;117.70;45.80;;;-3.00;99.90;;;;;;5117883;28;20425;-51
2021/12/28 07:32:57;;;;;;;102.30;44.27;;;-3.00;99.90;;;;;;5119849;28;20186;-53
2021/12/28 07:35:27;;;;;;;107.00;43.80;;;-2.90;99.90;;;;;;5123180;28;20194;-51
2021/12/28 07:37:58;;;;;;;118.63;44.20;;;-3.00;99.90;;;;;;5121121;28;20757;-51
2021/12/28 07:40:28;;;;;;;116.73;41.70;;;-2.90;99.90;;;;;;5117660;28;20190;-53
2021/12/28 07:42:59;;;;;;;121.40;43.57;;;-2.90;99.90;;;;;;5118985;29;20206;-52
2021/12/28 07:45:29;;;;;;;109.97;43.40;;;-2.90;99.90;;;;;;5119151;28;20218;-51
2021/12/28 07:48:00;;;;;;;105.83;42.00;;;-2.90;99.90;;;;;;5110977;23;20241;-45
2021/12/28 07:50:31;;;;;;;113.93;41.97;;;-2.80;99.90;;;;;;5095981;29;20195;-45
2021/12/28 07:53:01;;;;;;;111.80;44.70;;;-2.80;99.90;;;;;;5082050;29;20182;-45
2021/12/28 07:55:32;;;;;;;124.93;43.93;;;-2.80;99.90;;;;;;5093252;29;21402;-45
2021/12/28 07:58:03;;;;;;;114.73;43.80;;;-2.80;99.90;;;;;;5084207;29;20693;-47
2021/12/28 08:00:33;;;;;;;104.40;42.50;;;-2.70;99.90;;;;;;5095866;29;20536;-45
2021/12/28 08:03:04;;;;;;;128.17;44.30;;;-2.70;99.90;;;;;;5096474;29;20184;-46
2021/12/28 08:05:36;;;;;;;106.13;41.90;;;-2.80;99.90;;;;;;5084592;29;20216;-46
2021/12/28 08:08:07;;;;;;;114.83;41.47;;;-2.70;99.90;;;;;;5093079;29;20454;-46
2021/12/28 08:10:38;;;;;;;106.27;41.10;;;-2.80;99.90;;;;;;5077168;29;20447;-46
2021/12/28 08:13:08;;;;;;;100.67;41.57;;;-2.80;99.90;;;;;;5091873;29;20181;-46
2021/12/28 08:15:39;;;;;;;102.20;39.63;;;-2.80;99.90;;;;;;5091648;29;20193;-45
2021/12/28 08:18:10;;;;;;;109.47;43.77;;;-2.70;99.90;;;;;;5084047;29;20208;-46
2021/12/28 08:20:40;;;;;;;101.67;41.37;;;-2.60;99.90;;;;;;5092174;29;20199;-46
2021/12/28 08:23:11;;;;;;;112.33;44.10;;;-2.60;99.90;;;;;;5088565;29;20359;-45
2021/12/28 08:25:42;;;;;;;112.90;42.40;;;-2.60;99.90;;;;;;5080716;29;20223;-45
2021/12/28 08:28:12;;;;;;;113.57;42.03;;;-2.60;99.90;;;;;;5082953;29;20290;-46
2021/12/28 08:30:43;;;;;;;107.53;42.47;;;-2.50;99.90;;;;;;5099575;29;20180;-45
2021/12/28 08:33:14;;;;;;;114.43;42.60;;;-2.50;99.90;;;;;;5079392;29;20184;-46
2021/12/28 08:35:44;;;;;;;102.23;42.43;;;-2.50;99.90;;;;;;5099867;29;20460;-45
2021/12/28 08:38:15;;;;;;;108.17;43.03;;;-2.40;99.90;;;;;;5095162;29;20552;-46
2021/12/28 08:40:46;;;;;;;101.67;41.50;;;-2.40;99.90;;;;;;5098078;29;20191;-45
2021/12/28 08:43:17;;;;;;;108.23;43.17;;;-2.40;99.90;;;;;;5082736;29;20547;-47
2021/12/28 08:45:47;;;;;;;119.60;43.60;;;-2.40;99.90;;;;;;5095649;29;20238;-45
2021/12/28 08:48:19;;;;;;;110.77;40.23;;;-2.30;99.90;;;;;;5094236;29;20222;-45
2021/12/28 08:50:49;;;;;;;95.60;39.50;;;-2.20;99.90;;;;;;5091754;29;20666;-45
2021/12/28 08:53:20;;;;;;;105.67;43.50;;;-2.20;99.90;;;;;;5090952;29;20447;-46
2021/12/28 08:55:52;;;;;;;108.60;40.10;;;-2.10;99.90;;;;;;5079959;29;20597;-47
2021/12/28 08:58:22;;;;;;;109.87;41.70;;;-2.10;99.90;;;;;;5095639;29;20224;-47
2021/12/28 09:00:53;;;;;;;91.10;39.87;;;-2.00;99.90;;;;;;5090337;29;20738;-45
2021/12/28 09:03:23;;;;;;;107.73;40.47;;;-1.90;99.90;;;;;;5074807;29;20196;-44
2021/12/28 09:05:54;;;;;;;95.37;41.43;;;-1.90;99.90;;;;;;5090553;29;20227;-45
2021/12/28 09:08:25;;;;;;;98.33;39.27;;;-2.00;99.90;;;;;;5092325;29;20208;-47
2021/12/28 09:10:55;;;;;;;101.40;39.93;;;-1.90;99.90;;;;;;5094078;29;20211;-46
2021/12/28 09:13:26;;;;;;;106.77;40.10;;;-1.90;99.90;;;;;;5093765;29;20274;-46
2021/12/28 09:15:56;;;;;;;111.13;41.87;;;-1.90;99.90;;;;;;5098611;29;20746;-47
2021/12/28 09:18:27;;;;;;;102.23;39.53;;;-1.80;99.90;;;;;;5080045;29;20211;-46
2021/12/28 09:20:58;;;;;;;105.73;40.60;;;-1.80;99.90;;;;;;5090497;29;20198;-45
2021/12/28 09:23:29;;;;;;;101.13;41.77;;;-1.80;99.90;;;;;;5093284;29;20183;-45
2021/12/28 09:26:00;;;;;;;100.93;40.70;;;-1.80;99.90;;;;;;5092596;29;21027;-46
2021/12/28 09:28:30;;;;;;;117.57;40.10;;;-1.80;99.90;;;;;;5095112;29;20559;-47
2021/12/28 09:31:01;;;;;;;94.90;39.43;;;-1.70;99.90;;;;;;5092041;29;20194;-48
2021/12/28 09:33:32;;;;;;;101.27;42.60;;;-1.70;99.90;;;;;;5097357;29;20192;-46
2021/12/28 09:36:05;;;;;;;98.20;40.90;;;-1.70;99.90;;;;;;5079152;29;20279;-46
2021/12/28 09:38:36;;;;;;;106.10;39.03;;;-1.60;99.90;;;;;;5096043;29;20266;-46
2021/12/28 09:41:07;;;;;;;110.97;42.00;;;-1.60;99.90;;;;;;5094579;29;20957;-46
2021/12/28 09:43:38;;;;;;;84.70;38.00;;;-1.50;99.90;;;;;;5082492;29;20467;-46
2021/12/28 09:46:08;;;;;;;100.20;40.60;;;-1.50;99.90;;;;;;5094944;29;20647;-47
2021/12/28 09:48:39;;;;;;;114.97;40.43;;;-1.60;99.90;;;;;;5089095;29;20486;-46
2021/12/28 09:51:10;;;;;;;104.60;40.10;;;-1.50;99.90;;;;;;5080903;29;20428;-47
2021/12/28 09:53:41;;;;;;;95.90;38.10;;;-1.50;99.90;;;;;;5097967;29;20220;-47
2021/12/28 09:56:12;;;;;;;95.70;38.97;;;-1.50;99.90;;;;;;5093911;29;20214;-46
2021/12/28 09:58:42;;;;;;;108.03;40.73;;;-1.40;99.90;;;;;;5096660;29;20434;-48
2021/12/28 10:01:13;;;;;;;108.27;41.43;;;-1.50;99.90;;;;;;5099687;29;20193;-47
2021/12/28 10:03:44;;;;;;;105.00;40.50;;;-1.60;99.90;;;;;;5098283;29;20214;-46
2021/12/28 10:06:26;;;;;;;110.67;42.50;;;-1.60;99.90;;;;;;5086438;29;20271;-46
2021/12/28 10:09:13;;;;;;;116.67;41.80;;;-1.60;99.90;;;;;;5089616;29;20205;-46
2021/12/28 10:11:53;;;;;;;97.20;40.37;;;-1.50;99.90;;;;;;5099181;29;20601;-48
2021/12/28 10:14:28;;;;;;;95.90;42.90;;;-1.50;99.90;;;;;;5090123;29;21734;-46
2021/12/28 10:17:02;;;;;;;112.97;42.20;;;-1.50;99.90;;;;;;5094383;29;20463;-46
2021/12/28 10:19:44;;;;;;;110.87;39.43;;;-1.40;99.90;;;;;;5096779;29;20487;-46
2021/12/28 10:22:29;;;;;;;107.00;41.53;;;-1.40;99.90;;;;;;5087157;29;20795;-47
2021/12/28 10:25:18;;;;;;;122.07;43.60;;;-1.30;99.90;;;;;;5102000;29;20449;-46
2021/12/28 10:27:57;;;;;;;107.30;41.60;;;-1.30;99.90;;;;;;5086333;29;20545;-45
2021/12/28 10:30:33;;;;;;;100.80;42.63;;;-1.30;99.90;;;;;;5098649;29;20469;-46
2021/12/28 10:33:07;;;;;;;107.63;42.80;;;-1.30;99.90;;;;;;5099895;29;20495;-46
2021/12/28 10:35:41;;;;;;;99.53;40.73;;;-1.30;99.90;;;;;;5097715;29;20445;-48
2021/12/28 10:38:14;;;;;;;120.40;46.73;;;-1.30;99.90;;;;;;5082725;29;20486;-46
2021/12/28 10:40:57;;;;;;;131.03;53.37;;;-1.20;99.90;;;;;;5094746;29;20459;-46
2021/12/28 10:43:32;;;;;;;131.70;49.63;;;-1.10;99.90;;;;;;5100482;29;20895;-48
2021/12/28 10:46:14;;;;;;;110.20;48.77;;;-1.00;99.90;;;;;;5093536;29;21047;-46
2021/12/28 10:48:50;;;;;;;116.13;44.30;;;-0.90;99.90;;;;;;5093235;29;20450;-45
2021/12/28 10:51:24;;;;;;;108.40;43.67;;;-0.80;99.90;;;;;;5100215;29;20482;-47
2021/12/28 10:56:57;;;;;;;98.33;41.73;;;-0.70;99.90;;;;;;5094962;29;20468;-46
2021/12/28 10:59:32;;;;;;;99.80;40.70;;;-0.60;99.90;;;;;;5096012;29;20473;-48
2021/12/28 11:02:04;;;;;;;100.30;39.40;;;-0.50;99.90;;;;;;5094060;29;20455;-46
2021/12/28 11:04:37;;;;;;;99.30;39.37;;;-0.40;99.90;;;;;;5093662;29;20781;-46
2021/12/28 11:07:08;;;;;;;97.93;40.27;;;-0.30;99.90;;;;;;5098788;29;20569;-45
2021/12/28 11:09:47;;;;;;;101.40;40.10;;;-0.30;99.90;;;;;;5094595;29;20451;-46
2021/12/28 11:12:18;;;;;;;97.90;39.57;;;-0.20;99.90;;;;;;5098421;29;20853;-45
2021/12/28 11:14:50;;;;;;;103.40;39.03;;;-0.20;99.90;;;;;;5083350;29;20515;-48
2021/12/28 11:17:30;;;;;;;109.17;40.33;;;-0.30;99.90;;;;;;5100981;29;20215;-47
2021/12/28 11:20:01;;;;;;;91.87;37.57;;;-0.40;99.90;;;;;;5090923;29;20473;-47
2021/12/28 11:22:31;;;;;;;99.93;38.43;;;-0.30;99.90;;;;;;5098495;29;20478;-47
2021/12/28 11:25:15;;;;;;;83.93;36.93;;;-0.30;99.90;;;;;;5096065;29;20195;-48
2021/12/28 11:27:46;;;;;;;90.23;37.13;;;-0.20;99.90;;;;;;5098230;29;20215;-47
2021/12/28 11:30:17;;;;;;;106.93;40.00;;;-0.20;99.90;;;;;;5099210;29;20432;-47
2021/12/28 11:33:04;;;;;;;91.77;34.97;;;-0.20;99.90;;;;;;5095435;29;20188;-47
2021/12/28 11:35:36;;;;;;;88.43;37.07;;;-0.10;99.90;;;;;;5096189;29;20517;-47
2021/12/28 11:38:07;;;;;;;89.30;36.43;;;-0.10;99.90;;;;;;5095092;29;20828;-46
2021/12/28 11:40:38;;;;;;;105.93;36.07;;;-0.10;99.90;;;;;;5096330;29;20443;-46
2021/12/28 11:43:08;;;;;;;101.47;38.57;;;-0.10;99.90;;;;;;5096054;29;20242;-46
2021/12/28 11:45:39;;;;;;;95.33;37.50;;;0.00;99.90;;;;;;5094315;29;20262;-47
2021/12/28 11:48:10;;;;;;;103.23;39.23;;;0.00;99.90;;;;;;5095122;29;20299;-47
2021/12/28 11:50:41;;;;;;;82.67;35.90;;;0.00;99.90;;;;;;5090812;29;20293;-48
2021/12/28 11:53:14;;;;;;;87.77;37.90;;;0.00;99.90;;;;;;5089562;29;20462;-47
2021/12/28 11:55:44;;;;;;;94.67;37.60;;;0.00;99.90;;;;;;5094730;29;20191;-47
2021/12/28 11:58:15;;;;;;;89.07;34.40;;;0.10;99.90;;;;;;5089407;29;20979;-46
2021/12/28 12:00:46;;;;;;;92.83;38.03;;;0.10;99.90;;;;;;5080834;29;20213;-47
2021/12/28 12:03:36;;;;;;;79.27;34.53;;;0.10;99.90;;;;;;5076776;29;20187;-48
2021/12/28 12:06:07;;;;;;;78.73;35.03;;;0.10;99.90;;;;;;5093026;29;20202;-46
2021/12/28 12:09:02;;;;;;;81.10;36.07;;;0.20;99.90;;;;;;5076932;29;20432;-48
2021/12/28 12:11:32;;;;;;;78.87;34.20;;;0.20;99.90;;;;;;5078511;29;20187;-47
2021/12/28 12:14:03;;;;;;;93.13;34.50;;;0.20;99.90;;;;;;5092460;29;20440;-46
2021/12/28 12:16:33;;;;;;;75.83;34.00;;;0.30;99.90;;;;;;5088927;29;20211;-46
2021/12/28 12:19:04;;;;;;;79.60;35.03;;;0.30;99.90;;;;;;5090667;29;20188;-46
2021/12/28 12:21:34;;;;;;;78.43;34.50;;;0.40;99.90;;;;;;5090270;29;20221;-49
2021/12/28 12:24:05;;;;;;;78.60;33.17;;;0.40;99.90;;;;;;5089556;29;20218;-47
2021/12/28 12:26:37;;;;;;;88.00;34.90;;;0.40;99.90;;;;;;5087639;29;20309;-46
2021/12/28 12:29:20;;;;;;;100.43;34.33;;;0.50;99.90;;;;;;5079554;29;20182;-47
2021/12/28 12:31:53;;;;;;;82.43;33.80;;;0.50;99.90;;;;;;5092964;29;20494;-47
2021/12/28 12:34:29;;;;;;;71.80;32.40;;;0.50;99.90;;;;;;5090776;29;20799;-48
2021/12/28 12:37:00;;;;;;;86.30;34.80;;;0.50;99.90;;;;;;5089732;29;20464;-46
2021/12/28 12:39:38;;;;;;;71.07;33.27;;;0.50;99.90;;;;;;5093978;29;20435;-49
2021/12/28 12:42:12;;;;;;;76.70;33.37;;;0.60;99.90;;;;;;5088044;29;20194;-47
2021/12/28 12:44:43;;;;;;;74.03;31.57;;;0.60;99.90;;;;;;5089949;29;20431;-47
2021/12/28 12:47:16;;;;;;;82.47;32.27;;;0.60;99.90;;;;;;5091957;28;21069;-47
2021/12/28 12:50:04;;;;;;;85.43;35.17;;;0.60;99.90;;;;;;5092112;29;20207;-46